sensor_id;sensor_type;location;lat;lon;timestamp;temperature;humidity
23685;DHT22;12020;51.384;6.908;2022-08-25T00:02:08;22.70;99.90
23685;DHT22;12020;51.384;6.908;2022-08-25T00:04:40;22.60;99.90
23685;DHT22;12020;51.384;6.908;2022-08-25T00:07:08;22.60;99.90
23685;DHT22;12020;51.384;6.908;2022-08-25T00:09:38;22.50;99.90
23685;DHT22;12020;51.384;6.908;2022-08-25T00:12:07;22.50;99.90
23685;DHT22;12020;51.384;6.908;2022-08-25T00:14:39;22.40;99.90
23685;DHT22;12020;51.384;6.908;2022-08-25T00:17:08;22.40;99.90
23685;DHT22;12020;51.384;6.908;2022-08-25T00:19:37;22.30;99.90
23685;DHT22;12020;51.384;6.908;2022-08-25T00:22:14;22.30;99.90
23685;DHT22;12020;51.384;6.908;2022-08-25T00:24:43;22.30;99.90
23685;DHT22;12020;51.384;6.908;2022-08-25T00:27:10;22.20;99.90
23685;DHT22;12020;51.384;6.908;2022-08-25T00:29:37;22.10;99.90
23685;DHT22;12020;51.384;6.908;2022-08-25T00:32:14;22.10;99.90
23685;DHT22;12020;51.384;6.908;2022-08-25T00:35:03;22.00;99.90
23685;DHT22;12020;51.384;6.908;2022-08-25T00:37:30;22.00;99.90
23685;DHT22;12020;51.384;6.908;2022-08-25T00:39:57;21.90;99.90
23685;DHT22;12020;51.384;6.908;2022-08-25T00:42:27;21.90;99.90
23685;DHT22;12020;51.384;6.908;2022-08-25T00:45:00;21.90;99.90
23685;DHT22;12020;51.384;6.908;2022-08-25T00:47:51;21.80;99.90
23685;DHT22;12020;51.384;6.908;2022-08-25T00:50:19;21.70;99.90
23685;DHT22;12020;51.384;6.908;2022-08-25T00:52:55;21.70;99.90
23685;DHT22;12020;51.384;6.908;2022-08-25T00:55:35;21.60;99.90
23685;DHT22;12020;51.384;6.908;2022-08-25T00:58:24;21.60;99.90
23685;DHT22;12020;51.384;6.908;2022-08-25T01:00:55;21.60;99.90
23685;DHT22;12020;51.384;6.908;2022-08-25T01:03:27;21.50;99.90
23685;DHT22;12020;51.384;6.908;2022-08-25T01:05:55;21.50;99.90
23685;DHT22;12020;51.384;6.908;2022-08-25T01:08:32;21.40;99.90
23685;DHT22;12020;51.384;6.908;2022-08-25T01:11:08;21.40;99.90
23685;DHT22;12020;51.384;6.908;2022-08-25T01:13:51;21.40;99.90
23685;DHT22;12020;51.384;6.908;2022-08-25T01:16:35;21.40;99.90
23685;DHT22;12020;51.384;6.908;2022-08-25T01:19:09;21.30;99.90
23685;DHT22;12020;51.384;6.908;2022-08-25T01:21:50;21.40;99.90
23685;DHT22;12020;51.384;6.908;2022-08-25T01:26:51;21.30;99.90
23685;DHT22;12020;51.384;6.908;2022-08-25T01:29:24;21.30;99.90
23685;DHT22;12020;51.384;6.908;2022-08-25T01:32:00;21.20;99.90
23685;DHT22;12020;51.384;6.908;2022-08-25T01:34:32;21.20;99.90
23685;DHT22;12020;51.384;6.908;2022-08-25T01:37:10;21.20;99.90
23685;DHT22;12020;51.384;6.908;2022-08-25T01:39:47;21.20;99.90
23685;DHT22;12020;51.384;6.908;2022-08-25T01:42:53;21.20;99.90
23685;DHT22;12020;51.384;6.908;2022-08-25T01:45:38;21.20;99.90
23685;DHT22;12020;51.384;6.908;2022-08-25T01:48:12;21.10;99.90
23685;DHT22;12020;51.384;6.908;2022-08-25T01:50:49;21.00;99.90
23685;DHT22;12020;51.384;6.908;2022-08-25T01:53:39;21.00;99.90
23685;DHT22;12020;51.384;6.908;2022-08-25T01:56:28;21.00;99.90
23685;DHT22;12020;51.384;6.908;2022-08-25T01:59:06;21.00;99.90
23685;DHT22;12020;51.384;6.908;2022-08-25T02:01:52;21.00;99.90
23685;DHT22;12020;51.384;6.908;2022-08-25T02:04:29;21.00;99.90
23685;DHT22;12020;51.384;6.908;2022-08-25T02:07:03;20.90;99.90
23685;DHT22;12020;51.384;6.908;2022-08-25T02:09:35;20.90;99.90
23685;DHT22;12020;51.384;6.908;2022-08-25T02:12:04;20.80;99.90
23685;DHT22;12020;51.384;6.908;2022-08-25T02:14:31;20.70;99.90
23685;DHT22;12020;51.384;6.908;2022-08-25T02:17:01;20.70;99.90
23685;DHT22;12020;51.384;6.908;2022-08-25T02:19:31;20.70;99.90
23685;DHT22;12020;51.384;6.908;2022-08-25T02:22:04;20.60;99.90
23685;DHT22;12020;51.384;6.908;2022-08-25T02:24:40;20.60;99.90
23685;DHT22;12020;51.384;6.908;2022-08-25T02:27:27;20.60;99.90
23685;DHT22;12020;51.384;6.908;2022-08-25T02:29:55;20.50;99.90
23685;DHT22;12020;51.384;6.908;2022-08-25T02:32:22;20.40;99.90
23685;DHT22;12020;51.384;6.908;2022-08-25T02:34:48;20.40;99.90
23685;DHT22;12020;51.384;6.908;2022-08-25T02:37:15;20.40;99.90
23685;DHT22;12020;51.384;6.908;2022-08-25T02:39:43;20.30;99.90
23685;DHT22;12020;51.384;6.908;2022-08-25T02:42:32;20.40;99.90
23685;DHT22;12020;51.384;6.908;2022-08-25T02:45:20;20.30;99.90
23685;DHT22;12020;51.384;6.908;2022-08-25T02:47:46;20.30;99.90
23685;DHT22;12020;51.384;6.908;2022-08-25T02:50:18;20.30;99.90
23685;DHT22;12020;51.384;6.908;2022-08-25T02:52:55;20.20;99.90
23685;DHT22;12020;51.384;6.908;2022-08-25T02:55:24;20.20;99.90
23685;DHT22;12020;51.384;6.908;2022-08-25T02:57:53;20.10;99.90
23685;DHT22;12020;51.384;6.908;2022-08-25T03:00:25;20.10;99.90
23685;DHT22;12020;51.384;6.908;2022-08-25T03:02:52;20.00;99.90
23685;DHT22;12020;51.384;6.908;2022-08-25T03:05:18;20.00;99.90
23685;DHT22;12020;51.384;6.908;2022-08-25T03:07:48;19.90;99.90
23685;DHT22;12020;51.384;6.908;2022-08-25T03:10:16;19.90;99.90
23685;DHT22;12020;51.384;6.908;2022-08-25T03:13:00;19.80;99.90
23685;DHT22;12020;51.384;6.908;2022-08-25T03:15:26;19.70;99.90
23685;DHT22;12020;51.384;6.908;2022-08-25T03:17:54;19.70;99.90
23685;DHT22;12020;51.384;6.908;2022-08-25T03:20:27;19.70;99.90
23685;DHT22;12020;51.384;6.908;2022-08-25T03:22:57;19.60;99.90
23685;DHT22;12020;51.384;6.908;2022-08-25T03:25:27;19.60;99.90
23685;DHT22;12020;51.384;6.908;2022-08-25T03:28:12;19.60;99.90
23685;DHT22;12020;51.384;6.908;2022-08-25T03:30:42;19.60;99.90
23685;DHT22;12020;51.384;6.908;2022-08-25T03:33:31;19.60;99.90
23685;DHT22;12020;51.384;6.908;2022-08-25T03:36:00;19.50;99.90
23685;DHT22;12020;51.384;6.908;2022-08-25T03:38:32;19.50;99.90
23685;DHT22;12020;51.384;6.908;2022-08-25T03:41:24;19.40;99.90
23685;DHT22;12020;51.384;6.908;2022-08-25T03:43:54;19.40;99.90
23685;DHT22;12020;51.384;6.908;2022-08-25T03:46:30;19.40;99.90
23685;DHT22;12020;51.384;6.908;2022-08-25T03:49:22;19.30;99.90
23685;DHT22;12020;51.384;6.908;2022-08-25T03:51:52;19.30;99.90
23685;DHT22;12020;51.384;6.908;2022-08-25T03:54:37;19.30;99.90
23685;DHT22;12020;51.384;6.908;2022-08-25T03:57:02;19.20;99.90
23685;DHT22;12020;51.384;6.908;2022-08-25T03:59:32;19.20;99.90
23685;DHT22;12020;51.384;6.908;2022-08-25T04:02:03;19.20;99.90
23685;DHT22;12020;51.384;6.908;2022-08-25T04:04:30;19.20;99.90
23685;DHT22;12020;51.384;6.908;2022-08-25T04:07:00;19.20;99.90
23685;DHT22;12020;51.384;6.908;2022-08-25T04:09:47;19.10;99.90
23685;DHT22;12020;51.384;6.908;2022-08-25T04:12:15;19.10;99.90
23685;DHT22;12020;51.384;6.908;2022-08-25T04:14:43;19.10;99.90
23685;DHT22;12020;51.384;6.908;2022-08-25T04:17:12;19.10;99.90
23685;DHT22;12020;51.384;6.908;2022-08-25T04:19:45;19.10;99.90
23685;DHT22;12020;51.384;6.908;2022-08-25T04:22:12;19.10;99.90
23685;DHT22;12020;51.384;6.908;2022-08-25T04:24:38;19.10;99.90
23685;DHT22;12020;51.384;6.908;2022-08-25T04:27:05;19.00;99.90
23685;DHT22;12020;51.384;6.908;2022-08-25T04:29:33;19.00;99.90
23685;DHT22;12020;51.384;6.908;2022-08-25T04:32:00;19.00;99.90
23685;DHT22;12020;51.384;6.908;2022-08-25T04:34:26;19.00;99.90
23685;DHT22;12020;51.384;6.908;2022-08-25T04:37:01;19.00;99.90
23685;DHT22;12020;51.384;6.908;2022-08-25T04:39:40;19.00;99.90
23685;DHT22;12020;51.384;6.908;2022-08-25T04:42:17;19.00;99.90
23685;DHT22;12020;51.384;6.908;2022-08-25T04:44:44;18.90;99.90
23685;DHT22;12020;51.384;6.908;2022-08-25T04:47:11;18.90;99.90
23685;DHT22;12020;51.384;6.908;2022-08-25T04:49:38;18.90;99.90
23685;DHT22;12020;51.384;6.908;2022-08-25T04:52:08;18.90;99.90
23685;DHT22;12020;51.384;6.908;2022-08-25T04:54:35;18.80;99.90
23685;DHT22;12020;51.384;6.908;2022-08-25T04:57:03;18.80;99.90
23685;DHT22;12020;51.384;6.908;2022-08-25T04:59:28;18.80;99.90
23685;DHT22;12020;51.384;6.908;2022-08-25T05:01:54;18.80;99.90
23685;DHT22;12020;51.384;6.908;2022-08-25T05:04:21;18.80;99.90
23685;DHT22;12020;51.384;6.908;2022-08-25T05:06:48;18.90;99.90
23685;DHT22;12020;51.384;6.908;2022-08-25T05:09:15;18.90;99.90
23685;DHT22;12020;51.384;6.908;2022-08-25T05:11:41;19.00;99.90
23685;DHT22;12020;51.384;6.908;2022-08-25T05:14:09;19.10;99.90
23685;DHT22;12020;51.384;6.908;2022-08-25T05:16:38;19.10;99.90
23685;DHT22;12020;51.384;6.908;2022-08-25T05:19:04;19.10;99.90
23685;DHT22;12020;51.384;6.908;2022-08-25T05:21:30;19.20;99.90
23685;DHT22;12020;51.384;6.908;2022-08-25T05:24:00;19.20;99.90
23685;DHT22;12020;51.384;6.908;2022-08-25T05:26:29;19.20;99.90
23685;DHT22;12020;51.384;6.908;2022-08-25T05:29:05;19.20;99.90
23685;DHT22;12020;51.384;6.908;2022-08-25T05:31:33;19.20;99.90
23685;DHT22;12020;51.384;6.908;2022-08-25T05:34:06;19.20;99.90
23685;DHT22;12020;51.384;6.908;2022-08-25T05:36:34;19.10;99.90
23685;DHT22;12020;51.384;6.908;2022-08-25T05:39:00;19.10;99.90
23685;DHT22;12020;51.384;6.908;2022-08-25T05:41:30;19.10;99.90
23685;DHT22;12020;51.384;6.908;2022-08-25T05:43:57;19.10;99.90
23685;DHT22;12020;51.384;6.908;2022-08-25T05:46:25;19.10;99.90
23685;DHT22;12020;51.384;6.908;2022-08-25T05:48:52;19.10;99.90
23685;DHT22;12020;51.384;6.908;2022-08-25T05:51:19;19.20;99.90
23685;DHT22;12020;51.384;6.908;2022-08-25T05:53:47;19.20;99.90
23685;DHT22;12020;51.384;6.908;2022-08-25T05:56:18;19.10;99.90
23685;DHT22;12020;51.384;6.908;2022-08-25T05:58:45;19.00;99.90
23685;DHT22;12020;51.384;6.908;2022-08-25T06:01:25;18.90;99.90
23685;DHT22;12020;51.384;6.908;2022-08-25T06:04:15;18.90;99.90
23685;DHT22;12020;51.384;6.908;2022-08-25T06:07:16;18.90;99.90
23685;DHT22;12020;51.384;6.908;2022-08-25T06:10:12;19.00;99.90
23685;DHT22;12020;51.384;6.908;2022-08-25T06:13:48;19.20;99.90
23685;DHT22;12020;51.384;6.908;2022-08-25T06:17:21;19.20;99.90
23685;DHT22;12020;51.384;6.908;2022-08-25T06:20:36;19.30;99.90
23685;DHT22;12020;51.384;6.908;2022-08-25T06:33:03;19.40;99.90
23685;DHT22;12020;51.384;6.908;2022-08-25T06:39:42;19.60;99.90
23685;DHT22;12020;51.384;6.908;2022-08-25T06:50:20;20.00;99.90
23685;DHT22;12020;51.384;6.908;2022-08-25T06:53:31;20.10;99.90
23685;DHT22;12020;51.384;6.908;2022-08-25T06:55:57;20.10;99.90
23685;DHT22;12020;51.384;6.908;2022-08-25T06:58:27;20.20;99.90
23685;DHT22;12020;51.384;6.908;2022-08-25T07:01:12;20.20;99.90
23685;DHT22;12020;51.384;6.908;2022-08-25T07:04:06;20.30;99.90
23685;DHT22;12020;51.384;6.908;2022-08-25T07:06:41;20.40;99.90
23685;DHT22;12020;51.384;6.908;2022-08-25T07:09:19;20.50;99.90
23685;DHT22;12020;51.384;6.908;2022-08-25T07:12:14;20.60;99.90
23685;DHT22;12020;51.384;6.908;2022-08-25T07:14:46;20.70;99.90
23685;DHT22;12020;51.384;6.908;2022-08-25T07:17:15;20.70;99.90
23685;DHT22;12020;51.384;6.908;2022-08-25T07:20:09;20.80;99.90
23685;DHT22;12020;51.384;6.908;2022-08-25T07:23:41;21.00;99.90
23685;DHT22;12020;51.384;6.908;2022-08-25T07:26:31;21.10;99.90
23685;DHT22;12020;51.384;6.908;2022-08-25T07:29:36;21.30;99.90
23685;DHT22;12020;51.384;6.908;2022-08-25T07:34:33;21.50;99.90
23685;DHT22;12020;51.384;6.908;2022-08-25T07:37:21;21.70;99.90
23685;DHT22;12020;51.384;6.908;2022-08-25T07:40:04;21.90;99.90
23685;DHT22;12020;51.384;6.908;2022-08-25T07:42:30;22.20;99.90
23685;DHT22;12020;51.384;6.908;2022-08-25T07:44:55;22.40;99.90
23685;DHT22;12020;51.384;6.908;2022-08-25T07:47:21;22.60;99.90
23685;DHT22;12020;51.384;6.908;2022-08-25T07:49:47;22.80;99.90
23685;DHT22;12020;51.384;6.908;2022-08-25T07:52:12;23.10;99.90
23685;DHT22;12020;51.384;6.908;2022-08-25T07:54:38;23.30;99.90
23685;DHT22;12020;51.384;6.908;2022-08-25T07:57:06;23.60;99.90
23685;DHT22;12020;51.384;6.908;2022-08-25T07:59:38;24.00;99.90
23685;DHT22;12020;51.384;6.908;2022-08-25T08:02:18;24.30;99.90
23685;DHT22;12020;51.384;6.908;2022-08-25T08:04:50;24.70;99.90
23685;DHT22;12020;51.384;6.908;2022-08-25T08:07:24;25.00;99.90
23685;DHT22;12020;51.384;6.908;2022-08-25T08:09:53;25.20;99.90
23685;DHT22;12020;51.384;6.908;2022-08-25T08:12:21;25.50;99.90
23685;DHT22;12020;51.384;6.908;2022-08-25T08:14:47;25.80;99.90
23685;DHT22;12020;51.384;6.908;2022-08-25T08:17:13;25.90;99.90
23685;DHT22;12020;51.384;6.908;2022-08-25T08:19:40;26.20;99.90
23685;DHT22;12020;51.384;6.908;2022-08-25T08:22:09;26.40;99.90
23685;DHT22;12020;51.384;6.908;2022-08-25T08:24:42;26.60;99.90
23685;DHT22;12020;51.384;6.908;2022-08-25T08:27:12;26.80;99.90
23685;DHT22;12020;51.384;6.908;2022-08-25T08:29:41;27.00;99.90
23685;DHT22;12020;51.384;6.908;2022-08-25T08:32:10;27.30;99.90
23685;DHT22;12020;51.384;6.908;2022-08-25T08:34:41;27.50;99.90
23685;DHT22;12020;51.384;6.908;2022-08-25T08:37:07;27.60;99.90
23685;DHT22;12020;51.384;6.908;2022-08-25T08:39:37;27.70;99.90
23685;DHT22;12020;51.384;6.908;2022-08-25T08:54:12;28.90;99.90
23685;DHT22;12020;51.384;6.908;2022-08-25T08:56:48;29.10;99.90
23685;DHT22;12020;51.384;6.908;2022-08-25T08:59:25;29.40;99.70
23685;DHT22;12020;51.384;6.908;2022-08-25T09:01:58;29.60;98.30
23685;DHT22;12020;51.384;6.908;2022-08-25T09:04:49;29.80;97.30
23685;DHT22;12020;51.384;6.908;2022-08-25T09:07:20;30.00;97.10
23685;DHT22;12020;51.384;6.908;2022-08-25T09:09:49;30.10;96.20
23685;DHT22;12020;51.384;6.908;2022-08-25T09:15:53;30.30;94.40
23685;DHT22;12020;51.384;6.908;2022-08-25T09:18:54;30.40;94.20
23685;DHT22;12020;51.384;6.908;2022-08-25T09:21:34;30.60;94.30
23685;DHT22;12020;51.384;6.908;2022-08-25T09:32:43;31.20;91.60
23685;DHT22;12020;51.384;6.908;2022-08-25T09:35:34;31.30;91.50
23685;DHT22;12020;51.384;6.908;2022-08-25T09:38:27;31.50;90.20
23685;DHT22;12020;51.384;6.908;2022-08-25T09:41:04;31.50;90.30
23685;DHT22;12020;51.384;6.908;2022-08-25T09:43:52;31.60;91.00
23685;DHT22;12020;51.384;6.908;2022-08-25T09:46:33;31.70;90.40
23685;DHT22;12020;51.384;6.908;2022-08-25T09:49:20;31.80;89.30
23685;DHT22;12020;51.384;6.908;2022-08-25T09:51:47;31.90;89.20
23685;DHT22;12020;51.384;6.908;2022-08-25T09:54:20;32.00;89.80
23685;DHT22;12020;51.384;6.908;2022-08-25T10:06:14;32.50;82.90
23685;DHT22;12020;51.384;6.908;2022-08-25T11:32:36;33.20;72.00
23685;DHT22;12020;51.384;6.908;2022-08-25T11:35:40;33.20;72.00
23685;DHT22;12020;51.384;6.908;2022-08-25T11:41:39;33.10;69.20
23685;DHT22;12020;51.384;6.908;2022-08-25T11:44:42;33.00;69.00
23685;DHT22;12020;51.384;6.908;2022-08-25T11:51:01;32.80;70.10
23685;DHT22;12020;51.384;6.908;2022-08-25T11:53:37;32.80;71.00
23685;DHT22;12020;51.384;6.908;2022-08-25T11:56:35;32.90;70.30
23685;DHT22;12020;51.384;6.908;2022-08-25T11:59:02;32.90;71.20
23685;DHT22;12020;51.384;6.908;2022-08-25T12:02:00;32.90;72.40
23685;DHT22;12020;51.384;6.908;2022-08-25T12:07:25;33.00;72.50
23685;DHT22;12020;51.384;6.908;2022-08-25T12:10:11;33.00;72.20
23685;DHT22;12020;51.384;6.908;2022-08-25T12:23:34;32.80;70.90
23685;DHT22;12020;51.384;6.908;2022-08-25T12:47:47;32.90;72.00
23685;DHT22;12020;51.384;6.908;2022-08-25T12:50:29;33.00;71.70
23685;DHT22;12020;51.384;6.908;2022-08-25T12:55:59;33.00;71.90
23685;DHT22;12020;51.384;6.908;2022-08-25T13:12:50;32.20;68.60
23685;DHT22;12020;51.384;6.908;2022-08-25T13:15:42;32.10;68.60
23685;DHT22;12020;51.384;6.908;2022-08-25T13:18:26;32.00;67.60
23685;DHT22;12020;51.384;6.908;2022-08-25T13:21:14;32.10;68.30
23685;DHT22;12020;51.384;6.908;2022-08-25T13:23:51;32.10;68.30
23685;DHT22;12020;51.384;6.908;2022-08-25T13:26:37;32.20;70.20
23685;DHT22;12020;51.384;6.908;2022-08-25T13:29:13;32.20;68.00
23685;DHT22;12020;51.384;6.908;2022-08-25T13:32:01;32.30;68.70
23685;DHT22;12020;51.384;6.908;2022-08-25T13:34:33;32.30;67.70
23685;DHT22;12020;51.384;6.908;2022-08-25T13:37:09;32.30;67.90
23685;DHT22;12020;51.384;6.908;2022-08-25T13:40:20;32.30;68.60
23685;DHT22;12020;51.384;6.908;2022-08-25T13:42:49;32.40;66.70
23685;DHT22;12020;51.384;6.908;2022-08-25T13:45:19;32.30;67.00
23685;DHT22;12020;51.384;6.908;2022-08-25T13:47:46;32.30;66.40
23685;DHT22;12020;51.384;6.908;2022-08-25T13:50:19;32.30;66.60
23685;DHT22;12020;51.384;6.908;2022-08-25T13:53:12;32.20;67.40
23685;DHT22;12020;51.384;6.908;2022-08-25T13:55:57;32.10;68.20
23685;DHT22;12020;51.384;6.908;2022-08-25T13:58:30;32.00;68.40
23685;DHT22;12020;51.384;6.908;2022-08-25T14:03:41;31.80;70.90
23685;DHT22;12020;51.384;6.908;2022-08-25T14:08:44;31.60;69.60
23685;DHT22;12020;51.384;6.908;2022-08-25T14:11:30;31.70;70.60
23685;DHT22;12020;51.384;6.908;2022-08-25T14:14:09;31.70;69.90
23685;DHT22;12020;51.384;6.908;2022-08-25T14:16:59;31.80;69.20
23685;DHT22;12020;51.384;6.908;2022-08-25T14:19:29;31.90;69.00
23685;DHT22;12020;51.384;6.908;2022-08-25T14:24:55;31.90;67.00
23685;DHT22;12020;51.384;6.908;2022-08-25T14:27:26;31.80;66.90
23685;DHT22;12020;51.384;6.908;2022-08-25T14:29:53;31.70;65.60
23685;DHT22;12020;51.384;6.908;2022-08-25T14:32:20;31.70;66.30
23685;DHT22;12020;51.384;6.908;2022-08-25T14:34:47;31.60;65.80
23685;DHT22;12020;51.384;6.908;2022-08-25T14:37:22;31.60;66.20
23685;DHT22;12020;51.384;6.908;2022-08-25T14:39:52;31.50;68.50
23685;DHT22;12020;51.384;6.908;2022-08-25T14:42:19;31.50;67.60
23685;DHT22;12020;51.384;6.908;2022-08-25T14:44:48;31.40;68.10
23685;DHT22;12020;51.384;6.908;2022-08-25T14:47:15;31.40;66.70
23685;DHT22;12020;51.384;6.908;2022-08-25T14:49:41;31.30;67.20
23685;DHT22;12020;51.384;6.908;2022-08-25T14:52:19;31.30;67.30
23685;DHT22;12020;51.384;6.908;2022-08-25T14:54:49;31.30;68.10
23685;DHT22;12020;51.384;6.908;2022-08-25T14:57:15;31.30;67.60
23685;DHT22;12020;51.384;6.908;2022-08-25T14:59:42;31.30;68.00
23685;DHT22;12020;51.384;6.908;2022-08-25T15:02:09;31.40;67.70
23685;DHT22;12020;51.384;6.908;2022-08-25T15:04:37;31.50;66.00
23685;DHT22;12020;51.384;6.908;2022-08-25T15:07:03;31.50;65.60
23685;DHT22;12020;51.384;6.908;2022-08-25T15:09:49;31.50;66.10
23685;DHT22;12020;51.384;6.908;2022-08-25T15:12:16;31.60;66.00
23685;DHT22;12020;51.384;6.908;2022-08-25T15:21:13;31.80;66.50
23685;DHT22;12020;51.384;6.908;2022-08-25T15:26:55;31.80;66.00
23685;DHT22;12020;51.384;6.908;2022-08-25T15:29:27;31.90;67.40
23685;DHT22;12020;51.384;6.908;2022-08-25T15:34:30;31.80;65.60
23685;DHT22;12020;51.384;6.908;2022-08-25T15:37:11;31.70;66.40
23685;DHT22;12020;51.384;6.908;2022-08-25T15:39:40;31.70;66.80
23685;DHT22;12020;51.384;6.908;2022-08-25T15:42:08;31.70;67.00
23685;DHT22;12020;51.384;6.908;2022-08-25T15:44:37;31.70;66.70
23685;DHT22;12020;51.384;6.908;2022-08-25T15:47:03;31.60;66.00
23685;DHT22;12020;51.384;6.908;2022-08-25T15:49:30;31.60;65.70
23685;DHT22;12020;51.384;6.908;2022-08-25T15:51:56;31.60;66.60
23685;DHT22;12020;51.384;6.908;2022-08-25T15:54:23;31.50;66.50
23685;DHT22;12020;51.384;6.908;2022-08-25T15:57:05;31.50;65.20
23685;DHT22;12020;51.384;6.908;2022-08-25T15:59:30;31.50;65.80
23685;DHT22;12020;51.384;6.908;2022-08-25T16:01:56;31.40;65.90
23685;DHT22;12020;51.384;6.908;2022-08-25T16:04:26;31.40;66.00
23685;DHT22;12020;51.384;6.908;2022-08-25T16:06:53;31.50;65.20
23685;DHT22;12020;51.384;6.908;2022-08-25T16:09:20;31.50;64.90
23685;DHT22;12020;51.384;6.908;2022-08-25T16:11:46;31.50;66.40
23685;DHT22;12020;51.384;6.908;2022-08-25T16:14:13;31.50;66.40
23685;DHT22;12020;51.384;6.908;2022-08-25T16:16:40;31.50;66.00
23685;DHT22;12020;51.384;6.908;2022-08-25T16:19:08;31.50;66.50
23685;DHT22;12020;51.384;6.908;2022-08-25T16:21:35;31.50;66.30
23685;DHT22;12020;51.384;6.908;2022-08-25T16:24:04;31.50;66.00
23685;DHT22;12020;51.384;6.908;2022-08-25T16:26:32;31.50;66.30
23685;DHT22;12020;51.384;6.908;2022-08-25T16:28:59;31.50;66.40
23685;DHT22;12020;51.384;6.908;2022-08-25T16:31:26;31.60;66.20
23685;DHT22;12020;51.384;6.908;2022-08-25T16:33:52;31.60;65.30
23685;DHT22;12020;51.384;6.908;2022-08-25T16:36:20;31.60;65.00
23685;DHT22;12020;51.384;6.908;2022-08-25T16:38:50;31.60;65.10
23685;DHT22;12020;51.384;6.908;2022-08-25T16:41:39;31.60;65.00
23685;DHT22;12020;51.384;6.908;2022-08-25T16:44:08;31.60;65.30
23685;DHT22;12020;51.384;6.908;2022-08-25T16:46:35;31.60;64.70
23685;DHT22;12020;51.384;6.908;2022-08-25T16:49:04;31.50;64.50
23685;DHT22;12020;51.384;6.908;2022-08-25T16:51:39;31.50;65.50
23685;DHT22;12020;51.384;6.908;2022-08-25T16:54:07;31.50;65.00
23685;DHT22;12020;51.384;6.908;2022-08-25T16:56:52;31.50;65.20
23685;DHT22;12020;51.384;6.908;2022-08-25T16:59:18;31.50;65.30
23685;DHT22;12020;51.384;6.908;2022-08-25T17:01:44;31.50;65.30
23685;DHT22;12020;51.384;6.908;2022-08-25T17:04:11;31.40;65.10
23685;DHT22;12020;51.384;6.908;2022-08-25T17:06:41;31.40;64.50
23685;DHT22;12020;51.384;6.908;2022-08-25T17:09:11;31.30;64.80
23685;DHT22;12020;51.384;6.908;2022-08-25T17:11:45;31.30;64.60
23685;DHT22;12020;51.384;6.908;2022-08-25T17:14:15;31.30;65.50
23685;DHT22;12020;51.384;6.908;2022-08-25T17:16:42;31.30;65.80
23685;DHT22;12020;51.384;6.908;2022-08-25T17:19:12;31.30;65.00
23685;DHT22;12020;51.384;6.908;2022-08-25T17:21:40;31.20;66.50
23685;DHT22;12020;51.384;6.908;2022-08-25T17:24:08;31.20;68.50
23685;DHT22;12020;51.384;6.908;2022-08-25T17:26:39;31.10;67.00
23685;DHT22;12020;51.384;6.908;2022-08-25T17:29:07;31.10;67.30
23685;DHT22;12020;51.384;6.908;2022-08-25T17:31:34;31.10;67.90
23685;DHT22;12020;51.384;6.908;2022-08-25T17:34:09;31.00;67.50
23685;DHT22;12020;51.384;6.908;2022-08-25T17:36:41;31.00;67.80
23685;DHT22;12020;51.384;6.908;2022-08-25T17:39:25;30.90;68.80
23685;DHT22;12020;51.384;6.908;2022-08-25T17:41:54;30.90;70.20
23685;DHT22;12020;51.384;6.908;2022-08-25T17:44:21;30.80;70.30
23685;DHT22;12020;51.384;6.908;2022-08-25T17:46:49;30.70;72.80
23685;DHT22;12020;51.384;6.908;2022-08-25T17:49:17;30.70;77.80
23685;DHT22;12020;51.384;6.908;2022-08-25T17:51:44;30.60;78.80
23685;DHT22;12020;51.384;6.908;2022-08-25T17:54:14;30.50;79.00
23685;DHT22;12020;51.384;6.908;2022-08-25T17:57:07;30.40;78.50
23685;DHT22;12020;51.384;6.908;2022-08-25T18:05:07;30.20;79.10
23685;DHT22;12020;51.384;6.908;2022-08-25T18:08:13;30.10;80.40
23685;DHT22;12020;51.384;6.908;2022-08-25T18:14:19;29.80;81.30
23685;DHT22;12020;51.384;6.908;2022-08-25T18:16:53;29.70;82.70
23685;DHT22;12020;51.384;6.908;2022-08-25T18:22:28;29.40;84.20
23685;DHT22;12020;51.384;6.908;2022-08-25T18:24:57;29.30;85.10
23685;DHT22;12020;51.384;6.908;2022-08-25T18:27:39;29.10;85.00
23685;DHT22;12020;51.384;6.908;2022-08-25T18:30:25;28.90;85.30
23685;DHT22;12020;51.384;6.908;2022-08-25T18:32:52;28.80;85.90
23685;DHT22;12020;51.384;6.908;2022-08-25T18:35:18;28.70;86.40
23685;DHT22;12020;51.384;6.908;2022-08-25T18:37:50;28.50;86.90
23685;DHT22;12020;51.384;6.908;2022-08-25T18:40:47;28.40;87.40
23685;DHT22;12020;51.384;6.908;2022-08-25T18:43:34;28.20;87.50
23685;DHT22;12020;51.384;6.908;2022-08-25T18:46:12;28.10;87.20
23685;DHT22;12020;51.384;6.908;2022-08-25T18:48:41;28.00;88.10
23685;DHT22;12020;51.384;6.908;2022-08-25T18:51:07;27.90;88.10
23685;DHT22;12020;51.384;6.908;2022-08-25T18:57:03;27.70;89.30
23685;DHT22;12020;51.384;6.908;2022-08-25T19:03:56;27.50;90.00
23685;DHT22;12020;51.384;6.908;2022-08-25T19:06:24;27.40;90.70
23685;DHT22;12020;51.384;6.908;2022-08-25T19:09:12;27.30;91.10
23685;DHT22;12020;51.384;6.908;2022-08-25T19:11:52;27.20;91.20
23685;DHT22;12020;51.384;6.908;2022-08-25T19:14:26;27.10;91.30
23685;DHT22;12020;51.384;6.908;2022-08-25T19:17:08;27.00;91.80
23685;DHT22;12020;51.384;6.908;2022-08-25T19:19:49;27.00;92.60
23685;DHT22;12020;51.384;6.908;2022-08-25T19:22:20;26.90;93.30
23685;DHT22;12020;51.384;6.908;2022-08-25T19:24:48;26.80;93.70
23685;DHT22;12020;51.384;6.908;2022-08-25T19:27:15;26.60;93.00
23685;DHT22;12020;51.384;6.908;2022-08-25T19:29:41;26.60;92.60
23685;DHT22;12020;51.384;6.908;2022-08-25T19:32:09;26.50;94.70
23685;DHT22;12020;51.384;6.908;2022-08-25T19:34:42;26.40;96.00
23685;DHT22;12020;51.384;6.908;2022-08-25T19:37:10;26.30;96.60
23685;DHT22;12020;51.384;6.908;2022-08-25T19:39:39;26.20;97.10
23685;DHT22;12020;51.384;6.908;2022-08-25T19:42:06;26.20;97.30
23685;DHT22;12020;51.384;6.908;2022-08-25T19:44:32;26.10;98.20
23685;DHT22;12020;51.384;6.908;2022-08-25T19:46:59;26.00;98.90
23685;DHT22;12020;51.384;6.908;2022-08-25T19:49:33;25.90;99.10
23685;DHT22;12020;51.384;6.908;2022-08-25T19:52:03;25.80;99.60
23685;DHT22;12020;51.384;6.908;2022-08-25T19:54:41;25.80;99.90
23685;DHT22;12020;51.384;6.908;2022-08-25T19:57:10;25.70;99.90
23685;DHT22;12020;51.384;6.908;2022-08-25T19:59:39;25.60;99.90
23685;DHT22;12020;51.384;6.908;2022-08-25T20:02:07;25.60;99.90
23685;DHT22;12020;51.384;6.908;2022-08-25T20:04:34;25.50;99.90
23685;DHT22;12020;51.384;6.908;2022-08-25T20:07:02;25.50;99.90
23685;DHT22;12020;51.384;6.908;2022-08-25T20:09:28;25.40;99.90
23685;DHT22;12020;51.384;6.908;2022-08-25T20:11:54;25.40;99.90
23685;DHT22;12020;51.384;6.908;2022-08-25T20:14:22;25.30;99.90
23685;DHT22;12020;51.384;6.908;2022-08-25T20:16:50;25.20;99.90
23685;DHT22;12020;51.384;6.908;2022-08-25T20:19:39;25.10;99.90